Time;durP1;ratioP1;P1;durP2;ratioP2;P2;SDS_P1;SDS_P2;PMS_P1;PMS_P2;Temp;Humidity;BMP_temperature;BMP_pressure;BME280_temperature;BME280_humidity;BME280_pressure;Samples;Min_cycle;Max_cycle;Signal;HPM_P1;HPM_P2
2022/04/17 00:02:16;;;;;;;;;4.00;4.00;;;;;20.54;31.14;102114.63;4973605;28;45332;-63
2022/04/17 00:04:41;;;;;;;;;4.50;4.50;;;;;20.55;31.16;102100.56;4974407;28;45399;-65
2022/04/17 00:07:06;;;;;;;;;3.00;3.00;;;;;20.54;30.94;102106.72;4974630;28;45374;-65
2022/04/17 00:09:33;;;;;;;;;3.75;3.75;;;;;20.53;30.96;102102.38;4974856;28;45233;-64
2022/04/17 00:11:58;;;;;;;;;2.50;2.50;;;;;20.53;30.96;102089.22;4974742;28;45485;-62
2022/04/17 00:14:24;;;;;;;;;3.25;3.25;;;;;20.51;30.89;102089.25;4974150;28;46980;-61
2022/04/17 00:16:49;;;;;;;;;3.50;2.00;;;;;20.51;30.55;102094.50;4974042;28;45424;-64
2022/04/17 00:19:14;;;;;;;;;4.00;3.00;;;;;20.49;31.20;102092.84;4974425;28;45255;-64
2022/04/17 00:21:40;;;;;;;;;1.75;1.75;;;;;20.49;30.70;102087.59;4974798;28;45295;-64
2022/04/17 00:24:06;;;;;;;;;3.00;3.00;;;;;20.47;31.03;102089.41;4974041;28;47341;-64
2022/04/17 00:26:32;;;;;;;;;5.25;3.00;;;;;20.46;30.58;102088.56;4974517;28;45334;-65
2022/04/17 00:28:58;;;;;;;;;3.50;3.50;;;;;20.42;31.04;102079.03;4972914;28;45447;-63
2022/04/17 00:31:23;;;;;;;;;3.00;3.00;;;;;20.43;30.96;102087.81;4974349;28;45472;-63
2022/04/17 00:33:48;;;;;;;;;3.25;3.25;;;;;20.42;31.01;102078.19;4973973;28;46261;-65
2022/04/17 00:36:14;;;;;;;;;5.00;3.33;;;;;20.44;31.11;102084.28;4973337;28;60948;-63
2022/04/17 00:38:39;;;;;;;;;4.00;3.25;;;;;20.42;30.32;102075.56;4973965;28;45729;-64
2022/04/17 00:41:04;;;;;;;;;2.50;1.75;;;;;20.42;31.24;102078.19;4974765;28;45332;-64
2022/04/17 00:43:31;;;;;;;;;5.00;4.00;;;;;20.43;30.70;102077.28;4972152;28;57529;-59
2022/04/17 00:45:57;;;;;;;;;2.75;2.75;;;;;20.42;30.66;102086.09;4972780;28;45993;-59
2022/04/17 00:48:23;;;;;;;;;3.75;3.75;;;;;20.39;30.34;102077.38;4974036;28;45349;-59
2022/04/17 00:50:55;;;;;;;;;3.75;3.50;;;;;20.41;30.87;102087.00;4974244;28;45663;-63
2022/04/17 00:53:22;;;;;;;;;5.00;3.25;;;;;20.37;30.21;102073.94;4973904;28;46268;-65
2022/04/17 00:55:48;;;;;;;;;4.00;3.00;;;;;20.37;30.46;102071.31;4973654;28;45882;-62
2022/04/17 00:58:14;;;;;;;;;4.50;3.50;;;;;20.38;30.74;102070.38;4972748;28;45336;-58
2022/04/17 01:00:40;;;;;;;;;3.00;3.00;;;;;20.37;30.46;102073.94;4973937;28;45335;-60
2022/04/17 01:03:06;;;;;;;;;3.50;3.50;;;;;20.37;30.57;102070.47;4973888;28;46285;-63
2022/04/17 01:05:32;;;;;;;;;3.00;3.00;;;;;20.38;30.75;102069.53;4973906;28;45467;-63
2022/04/17 01:07:58;;;;;;;;;3.25;3.25;;;;;20.33;30.39;102067.06;4973721;28;45677;-62
2022/04/17 01:10:24;;;;;;;;;3.00;3.00;;;;;20.33;30.72;102060.94;4973893;28;45581;-65
2022/04/17 01:12:49;;;;;;;;;3.00;3.00;;;;;20.32;30.45;102060.09;4973337;28;47060;-57
2022/04/17 01:15:15;;;;;;;;;4.00;2.75;;;;;20.31;30.24;102058.38;4973406;28;45280;-53
2022/04/17 01:17:40;;;;;;;;;3.00;3.00;;;;;20.31;30.35;102057.50;4973599;28;45415;-56
2022/04/17 01:20:06;;;;;;;;;3.00;3.00;;;;;20.31;30.00;102061.00;4973869;28;45601;-57
2022/04/17 01:22:31;;;;;;;;;2.25;2.25;;;;;20.32;30.04;102059.22;4973378;28;46343;-56
2022/04/17 01:27:41;;;;;;;;;4.50;2.25;;;;;20.31;30.03;102042.56;4973497;28;45334;-61
2022/04/17 01:30:07;;;;;;;;;2.00;2.00;;;;;20.33;30.06;102047.78;4974008;28;45480;-65
2022/04/17 01:32:33;;;;;;;;;3.00;3.00;;;;;20.33;30.35;102039.88;4973099;28;46373;-66
2022/04/17 01:34:59;;;;;;;;;3.00;3.00;;;;;20.32;30.05;102039.03;4973103;28;45354;-64
2022/04/17 01:37:24;;;;;;;;;2.50;2.00;;;;;20.30;30.24;102039.97;4971989;28;45385;-57
2022/04/17 01:39:49;;;;;;;;;4.25;4.25;;;;;20.28;30.42;102037.41;4973071;28;45207;-64
2022/04/17 01:42:16;;;;;;;;;4.25;3.00;;;;;20.28;30.25;102034.78;4973023;28;45335;-65
2022/04/17 01:44:42;;;;;;;;;3.25;3.25;;;;;20.30;30.33;102029.44;4973047;28;45286;-65
2022/04/17 01:47:07;;;;;;;;;3.00;3.00;;;;;20.29;30.18;102035.63;4973427;28;45678;-64
2022/04/17 01:49:33;;;;;;;;;4.00;4.00;;;;;20.28;30.39;102034.78;4973370;28;45541;-64
2022/04/17 01:52:00;;;;;;;;;3.50;3.50;;;;;20.29;30.26;102035.63;4972956;28;46182;-67
2022/04/17 01:54:27;;;;;;;;;3.50;2.50;;;;;20.28;29.59;102031.28;4972779;28;45291;-66
2022/04/17 01:56:54;;;;;;;;;2.00;2.00;;;;;20.27;29.75;102033.03;4974706;28;45265;-65
2022/04/17 01:59:21;;;;;;;;;4.75;2.75;;;;;20.27;29.63;102032.19;4976299;28;45220;-63
2022/04/17 02:01:46;;;;;;;;;2.50;2.50;;;;;20.28;30.19;102036.56;4975947;28;45367;-66
2022/04/17 02:04:12;;;;;;;;;4.00;4.00;;;;;20.27;29.95;102032.19;4975945;28;45445;-65
2022/04/17 02:06:42;;;;;;;;;3.25;3.25;;;;;20.27;29.82;102034.84;4975158;28;45298;-66
2022/04/17 02:09:11;;;;;;;;;4.00;3.00;;;;;20.25;29.63;102032.25;4976365;28;45249;-61
2022/04/17 02:11:38;;;;;;;;;3.00;3.00;;;;;20.26;29.46;102035.75;4976145;28;46241;-62
2022/04/17 02:14:04;;;;;;;;;3.50;3.50;;;;;20.23;29.62;102034.06;4975725;28;45828;-59
2022/04/17 02:16:30;;;;;;;;;2.25;2.25;;;;;20.21;29.70;102023.59;4975959;28;45288;-61
2022/04/17 02:18:55;;;;;;;;;3.75;3.75;;;;;20.21;29.27;102023.59;4976010;28;45636;-62
2022/04/17 02:21:21;;;;;;;;;2.50;2.50;;;;;20.19;29.35;102020.16;4975662;28;45990;-66
2022/04/17 02:23:47;;;;;;;;;5.00;3.50;;;;;20.17;29.06;102016.72;4975579;28;45364;-66
2022/04/17 02:26:13;;;;;;;;;4.25;3.75;;;;;20.15;29.05;102015.03;4975893;28;45374;-66
2022/04/17 02:28:41;;;;;;;;;2.00;2.00;;;;;20.11;29.18;102011.66;4976212;28;45672;-66
2022/04/17 02:31:08;;;;;;;;;4.00;4.00;;;;;20.12;29.08;102009.91;4975997;28;45788;-65
2022/04/17 02:33:33;;;;;;;;;3.00;3.00;;;;;20.07;28.71;102003.03;4974384;28;45915;-63
2022/04/17 02:35:59;;;;;;;;;2.50;2.50;;;;;20.06;29.17;102011.84;4975727;28;45394;-56
2022/04/17 02:38:25;;;;;;;;;2.25;2.25;;;;;20.05;29.01;102002.22;4975867;28;45397;-55
2022/04/17 02:40:52;;;;;;;;;2.25;2.25;;;;;20.05;29.10;101999.59;4975574;28;46286;-67
2022/04/17 02:43:17;;;;;;;;;3.75;3.00;;;;;20.05;29.65;101999.59;4975677;28;45378;-62
2022/04/17 02:45:43;;;;;;;;;3.00;3.00;;;;;20.05;29.10;101994.31;4975767;28;45371;-62
2022/04/17 02:48:09;;;;;;;;;3.00;3.00;;;;;20.03;29.21;101996.13;4976230;28;45392;-61
2022/04/17 02:50:34;;;;;;;;;3.25;3.25;;;;;20.03;29.01;101997.94;4975462;28;45417;-65
2022/04/17 02:52:59;;;;;;;;;3.00;3.00;;;;;20.04;29.34;101999.66;4975346;28;45231;-66
2022/04/17 02:55:25;;;;;;;;;3.75;3.75;;;;;20.05;29.32;101994.31;4974277;28;45252;-63
2022/04/17 02:57:51;;;;;;;;;3.00;3.00;;;;;20.07;28.86;101989.88;4975610;28;45420;-65
2022/04/17 03:00:17;;;;;;;;;3.50;3.50;;;;;20.08;28.99;101993.34;4975158;28;47056;-66
2022/04/17 03:05:39;;;;;;;;;3.25;3.25;;;;;20.07;29.40;101986.34;4975404;28;45527;-64
2022/04/17 03:08:15;;;;;;;;;4.25;4.25;;;;;20.08;28.74;101981.06;4974742;28;45555;-65
2022/04/17 03:10:43;;;;;;;;;3.00;3.00;;;;;20.07;28.84;101986.34;4975369;28;46715;-64
2022/04/17 03:13:10;;;;;;;;;2.50;2.50;;;;;20.05;28.83;101983.78;4975501;28;45251;-65
2022/04/17 03:15:39;;;;;;;;;2.25;2.00;;;;;20.04;28.77;101976.81;4975107;28;45345;-57
2022/04/17 03:18:06;;;;;;;;;3.25;3.25;;;;;20.02;28.72;101978.63;4975219;28;45581;-61
2022/04/17 03:20:32;;;;;;;;;4.00;3.00;;;;;20.02;28.52;101978.63;4974759;28;46664;-59
2022/04/17 03:22:58;;;;;;;;;5.50;4.50;;;;;19.99;28.69;101978.75;4974810;28;45353;-60
2022/04/17 03:25:23;;;;;;;;;5.75;4.00;;;;;20.00;28.99;101972.59;4975161;28;45384;-62
2022/04/17 03:27:49;;;;;;;;;5.00;2.50;;;;;20.02;28.90;101976.00;4975317;28;45254;-65
2022/04/17 03:30:16;;;;;;;;;3.00;2.00;;;;;20.03;29.02;101976.88;4974856;28;46428;-55
2022/04/17 03:32:45;;;;;;;;;2.00;2.00;;;;;20.04;28.42;101973.34;4975188;28;45731;-61
2022/04/17 03:35:12;;;;;;;;;4.75;3.00;;;;;20.04;28.43;101978.59;4975291;28;45338;-62
2022/04/17 03:37:38;;;;;;;;;4.50;3.50;;;;;20.04;28.74;101976.81;4975077;28;45343;-64
2022/04/17 03:40:04;;;;;;;;;4.00;4.00;;;;;20.05;28.42;101970.63;4974610;28;45857;-68
2022/04/17 03:42:29;;;;;;;;;4.75;3.00;;;;;20.04;28.64;101966.28;4974919;28;45445;-63
2022/04/17 03:44:55;;;;;;;;;4.00;3.00;;;;;20.04;29.00;101966.28;4974885;28;45331;-65
2022/04/17 03:47:21;;;;;;;;;3.50;3.00;;;;;20.06;28.42;101969.72;4974962;28;45533;-67
2022/04/17 03:49:46;;;;;;;;;3.25;3.25;;;;;20.06;28.43;101964.47;4974645;28;46017;-65
2022/04/17 03:52:12;;;;;;;;;4.00;3.75;;;;;20.04;28.79;101966.28;4974889;28;45286;-65
2022/04/17 03:54:37;;;;;;;;;4.00;2.75;;;;;20.04;28.76;101968.91;4974814;28;45409;-61
2022/04/17 03:57:03;;;;;;;;;3.00;3.00;;;;;20.03;28.33;101961.94;4974641;28;45253;-62
2022/04/17 03:59:28;;;;;;;;;2.00;2.00;;;;;20.04;28.70;101965.44;4974259;28;45491;-64
2022/04/17 04:01:54;;;;;;;;;4.50;3.00;;;;;20.04;28.38;101961.00;4974445;28;45343;-63
2022/04/17 04:04:19;;;;;;;;;4.50;4.00;;;;;20.03;28.17;101959.28;4974319;28;46246;-65
2022/04/17 04:06:44;;;;;;;;;4.00;3.00;;;;;20.03;28.72;101958.44;4974676;28;45437;-59
2022/04/17 04:09:10;;;;;;;;;4.00;3.00;;;;;20.04;28.76;101960.16;4974298;28;46363;-57
2022/04/17 04:11:35;;;;;;;;;3.00;3.00;;;;;20.01;28.42;101944.47;4974340;28;45283;-64
2022/04/17 04:14:03;;;;;;;;;3.00;3.00;;;;;20.02;28.55;101957.56;4974372;28;45299;-58
2022/04/17 04:16:29;;;;;;;;;4.75;4.75;;;;;20.02;28.30;101962.00;4974510;28;45257;-60
2022/04/17 04:18:55;;;;;;;;;4.75;4.00;;;;;20.02;28.64;101954.09;4972764;28;48073;-61
2022/04/17 04:21:20;;;;;;;;;3.25;3.25;;;;;20.01;28.20;101950.59;4974416;28;45337;-61
2022/04/17 04:23:45;;;;;;;;;2.75;2.75;;;;;20.00;27.86;101959.44;4974421;28;45276;-63
2022/04/17 04:26:10;;;;;;;;;3.00;3.00;;;;;19.96;28.09;101949.91;4974601;28;45202;-61
2022/04/17 04:28:36;;;;;;;;;3.00;3.00;;;;;19.96;28.25;101952.53;4973928;28;48179;-56
2022/04/17 04:31:10;;;;;;;;;3.25;3.25;;;;;19.96;28.07;101946.41;4974089;28;45256;-53
2022/04/17 04:33:37;;;;;;;;;2.00;2.00;;;;;19.95;28.48;101940.28;4974222;28;45193;-58
2022/04/17 04:36:05;;;;;;;;;4.00;4.00;;;;;19.95;28.38;101948.19;4974275;28;45457;-61
2022/04/17 04:38:30;;;;;;;;;3.00;3.00;;;;;19.94;28.21;101949.09;4973987;28;46278;-65
2022/04/17 04:40:56;;;;;;;;;4.00;3.00;;;;;19.91;27.95;101938.66;4972785;28;45506;-56
2022/04/17 04:43:22;;;;;;;;;3.00;2.00;;;;;19.91;28.25;101944.81;4974162;28;45462;-66
2022/04/17 04:51:23;;;;;;;;;1.25;1.25;;;;;19.92;28.32;101950.91;4973988;28;45410;-61
2022/04/17 04:53:49;;;;;;;;;3.50;2.50;;;;;19.94;28.32;101954.34;4974094;28;45375;-56
2022/04/17 04:56:16;;;;;;;;;3.00;2.00;;;;;19.95;27.96;101956.09;4989474;28;45458;-61
2022/04/17 04:58:42;;;;;;;;;3.00;0.00;;;;;19.93;28.09;101948.25;4973677;28;46466;-63
2022/04/17 05:01:08;;;;;;;;;4.00;3.25;;;;;19.93;27.93;101957.91;4972544;28;45693;-63
2022/04/17 05:03:34;;;;;;;;;2.25;2.25;;;;;19.92;27.95;101957.06;4972632;28;45376;-65
2022/04/17 05:05:59;;;;;;;;;3.25;3.25;;;;;19.93;27.99;101952.63;4974000;28;45623;-65
2022/04/17 05:08:24;;;;;;;;;5.00;3.00;;;;;19.92;27.83;101961.44;4973421;28;45288;-63
2022/04/17 05:10:50;;;;;;;;;3.50;3.00;;;;;19.91;28.13;101964.97;4973550;28;45360;-63
2022/04/17 05:13:17;;;;;;;;;5.00;3.00;;;;;19.87;27.97;101958.13;4973964;28;45326;-62
2022/04/17 05:15:42;;;;;;;;;3.50;3.00;;;;;19.87;27.63;101956.34;4973803;28;45575;-65
2022/04/17 05:18:08;;;;;;;;;2.50;2.50;;;;;19.87;28.11;101963.38;4973223;28;45466;-65
2022/04/17 05:20:33;;;;;;;;;3.00;3.00;;;;;19.86;27.56;101972.19;4973375;28;45517;-63
2022/04/17 05:23:15;;;;;;;;;4.00;4.00;;;;;19.82;28.03;101958.25;4973354;28;45892;-62
2022/04/17 05:25:40;;;;;;;;;3.50;3.25;;;;;19.83;27.57;101975.75;4973624;28;45589;-65
2022/04/17 05:28:06;;;;;;;;;2.00;2.00;;;;;19.82;28.00;101973.16;4973162;28;46029;-65
2022/04/17 05:30:31;;;;;;;;;2.75;2.75;;;;;19.81;27.74;101974.94;4973370;28;45239;-62
2022/04/17 05:32:57;;;;;;;;;3.00;3.00;;;;;19.83;28.31;101977.53;4976568;28;45508;-64
2022/04/17 05:35:22;;;;;;;;;3.75;3.75;;;;;19.83;27.20;101969.63;4976402;28;45378;-65
2022/04/17 05:37:48;;;;;;;;;3.00;3.00;;;;;19.81;27.44;101972.31;4976493;28;45391;-66
2022/04/17 05:40:13;;;;;;;;;3.75;3.75;;;;;19.81;27.67;101979.34;4974859;28;46180;-64
2022/04/17 05:42:38;;;;;;;;;2.75;2.75;;;;;19.82;27.92;101973.16;4976409;28;45321;-66
2022/04/17 05:45:04;;;;;;;;;4.00;3.25;;;;;19.80;27.68;101969.72;4976541;28;45505;-57
2022/04/17 05:47:30;;;;;;;;;4.00;4.00;;;;;19.78;27.19;101980.31;4976132;28;45405;-63
2022/04/17 05:49:55;;;;;;;;;3.00;3.00;;;;;19.75;27.43;101973.38;4975978;28;45371;-64
2022/04/17 05:52:21;;;;;;;;;3.00;3.00;;;;;19.75;27.82;101967.25;4976165;28;45456;-65
2022/04/17 05:54:46;;;;;;;;;4.00;3.00;;;;;19.77;27.61;101973.31;4976748;28;45378;-64
2022/04/17 05:57:11;;;;;;;;;3.75;2.75;;;;;19.77;27.35;101974.19;4976005;28;45379;-63
2022/04/17 05:59:37;;;;;;;;;3.75;3.75;;;;;19.76;27.45;101971.59;4975942;28;45331;-58
2022/04/17 06:02:03;;;;;;;;;2.00;2.00;;;;;19.74;27.53;101976.06;4976161;28;45310;-53
2022/04/17 06:04:29;;;;;;;;;4.25;4.25;;;;;19.75;27.42;101967.25;4976153;28;45247;-56
2022/04/17 06:06:54;;;;;;;;;3.50;3.50;;;;;19.74;27.80;101963.78;4975736;28;46017;-57
2022/04/17 06:09:19;;;;;;;;;3.00;3.00;;;;;19.78;27.31;101975.06;4976144;28;45223;-58
2022/04/17 06:11:45;;;;;;;;;3.00;3.00;;;;;19.77;27.15;101974.19;4976054;28;45331;-56
2022/04/17 06:14:10;;;;;;;;;2.75;2.25;;;;;19.74;27.25;101979.56;4976132;28;45535;-60
2022/04/17 06:16:36;;;;;;;;;4.00;4.00;;;;;19.75;27.39;101977.78;4990700;28;46214;-59
2022/04/17 06:19:01;;;;;;;;;3.25;3.25;;;;;19.75;27.15;101980.41;4975523;28;45228;-53
2022/04/17 06:21:27;;;;;;;;;3.50;3.00;;;;;19.75;26.88;101981.28;4974760;28;45252;-57
2022/04/17 06:23:52;;;;;;;;;3.00;3.00;;;;;19.77;26.93;101983.84;4976454;28;45412;-56
2022/04/17 06:26:17;;;;;;;;;2.25;2.25;;;;;19.77;26.99;101976.84;4975617;28;45508;-56
2022/04/17 06:28:42;;;;;;;;;4.75;3.75;;;;;19.76;27.09;101975.13;4975889;28;45430;-54
2022/04/17 06:31:08;;;;;;;;;3.50;3.00;;;;;19.77;27.43;101968.06;4975610;28;47917;-61
2022/04/17 06:33:33;;;;;;;;;6.00;3.00;;;;;19.77;26.89;101975.97;4975845;28;45886;-56
2022/04/17 06:35:59;;;;;;;;;3.50;3.00;;;;;19.76;27.59;101975.13;4975412;28;45473;-53
2022/04/17 06:38:24;;;;;;;;;3.25;3.00;;;;;19.78;27.25;101975.94;4975588;28;45516;-55
2022/04/17 06:40:50;;;;;;;;;2.25;2.00;;;;;19.81;27.22;101971.44;4976028;28;45472;-56
2022/04/17 06:43:15;;;;;;;;;3.50;3.50;;;;;19.83;27.19;101972.25;4974652;28;45624;-53
2022/04/17 06:45:41;;;;;;;;;3.00;3.00;;;;;19.84;27.13;101971.34;4975307;28;47408;-57
2022/04/17 06:48:16;;;;;;;;;4.00;4.00;;;;;19.86;27.26;101977.47;4974100;28;45445;-55
2022/04/17 06:50:43;;;;;;;;;5.00;5.00;;;;;19.85;27.13;101970.44;4975581;28;45370;-57
2022/04/17 06:53:08;;;;;;;;;4.00;4.00;;;;;19.85;27.18;101973.91;4975628;28;45322;-57
2022/04/17 06:55:33;;;;;;;;;2.75;2.75;;;;;19.81;26.77;101967.06;4975195;28;45419;-62
2022/04/17 06:57:59;;;;;;;;;3.00;3.00;;;;;19.84;26.61;101958.19;4975218;28;45181;-60
2022/04/17 07:00:24;;;;;;;;;3.00;3.00;;;;;19.83;27.14;101965.25;4975826;28;45343;-62
2022/04/17 07:02:50;;;;;;;;;4.25;4.25;;;;;19.82;26.83;101954.75;4975768;28;45277;-62
2022/04/17 07:05:16;;;;;;;;;4.00;3.75;;;;;19.82;27.05;101955.63;4975123;28;46805;-59
2022/04/17 07:07:41;;;;;;;;;5.50;4.00;;;;;19.82;27.00;101953.00;4975248;28;45285;-57
2022/04/17 07:10:08;;;;;;;;;3.00;3.00;;;;;19.81;26.61;101947.78;4975470;28;45300;-61
2022/04/17 07:12:37;;;;;;;;;4.00;4.00;;;;;19.78;26.66;101944.34;4975607;28;45504;-60
2022/04/17 07:15:06;;;;;;;;;4.00;4.00;;;;;19.75;26.36;101943.56;4975293;28;45470;-58
2022/04/17 07:17:38;;;;;;;;;2.00;2.00;;;;;19.73;26.56;101945.44;4975132;28;45327;-61
2022/04/17 07:20:07;;;;;;;;;3.75;3.50;;;;;19.69;26.62;101935.91;4974986;28;45387;-63
2022/04/17 07:22:34;;;;;;;;;3.00;3.00;;;;;19.68;26.93;101932.41;4975389;28;45308;-52
2022/04/17 07:25:01;;;;;;;;;5.00;4.00;;;;;19.67;27.11;101938.59;4973569;28;47483;-57
2022/04/17 07:27:27;;;;;;;;;5.00;4.00;;;;;19.67;27.16;101938.59;4975199;28;45450;-53
2022/04/17 07:29:53;;;;;;;;;4.00;4.00;;;;;19.64;26.64;101930.81;4975455;28;45384;-54
2022/04/17 07:32:19;;;;;;;;;3.00;3.00;;;;;19.62;26.73;101938.72;4973951;28;45613;-52
2022/04/17 07:34:44;;;;;;;;;4.75;4.00;;;;;19.61;26.80;101937.03;4974744;28;46890;-51
2022/04/17 07:37:10;;;;;;;;;3.75;3.75;;;;;19.62;26.65;101930.00;4974771;28;46946;-54
2022/04/17 07:39:35;;;;;;;;;3.00;3.00;;;;;19.60;26.73;101930.06;4974964;28;45339;-49
2022/04/17 07:42:00;;;;;;;;;5.00;5.00;;;;;19.57;26.44;101921.38;4975115;28;45212;-53
2022/04/17 07:44:29;;;;;;;;;5.00;3.67;;;;;19.57;26.68;101924.03;4974695;28;55374;-46
2022/04/17 07:46:55;;;;;;;;;4.00;4.00;;;;;19.60;26.83;101926.56;4973874;28;45897;-47
2022/04/17 07:49:21;;;;;;;;;4.25;4.25;;;;;19.60;26.81;101916.91;4974874;28;45412;-58
2022/04/17 07:51:46;;;;;;;;;5.00;5.00;;;;;19.61;26.42;101912.50;4975015;28;45337;-50
2022/04/17 07:54:11;;;;;;;;;5.75;5.50;;;;;19.63;26.59;101915.94;4973708;28;54407;-45
2022/04/17 07:56:37;;;;;;;;;4.25;4.25;;;;;19.65;26.69;101911.50;4974741;28;45869;-49
2022/04/17 07:59:04;;;;;;;;;4.50;3.50;;;;;19.65;27.03;101911.50;4974795;28;45402;-47
2022/04/17 08:01:32;;;;;;;;;3.00;3.00;;;;;19.69;27.03;101906.97;4975037;28;45515;-49
2022/04/17 08:03:58;;;;;;;;;5.00;5.00;;;;;19.71;26.81;101906.00;4974555;28;46103;-57
2022/04/17 08:06:23;;;;;;;;;4.00;4.00;;;;;19.72;26.37;101907.72;4974976;28;45512;-51
2022/04/17 08:08:51;;;;;;;;;3.50;3.00;;;;;19.74;26.90;101905.03;4974672;28;45272;-49
2022/04/17 08:11:17;;;;;;;;;4.50;3.25;;;;;19.75;26.88;101910.25;4976553;27;45564;-48
2022/04/17 08:13:42;;;;;;;;;5.00;4.00;;;;;19.75;26.35;101901.50;4974572;28;46839;-55
2022/04/17 08:16:08;;;;;;;;;4.25;4.25;;;;;19.77;26.66;101903.19;4973161;28;45531;-56
2022/04/17 08:18:35;;;;;;;;;3.25;3.25;;;;;19.79;26.91;101879.44;4974465;28;45201;-61
2022/04/17 08:21:00;;;;;;;;;5.75;5.75;;;;;19.82;26.99;101891.63;4974918;28;45380;-56
2022/04/17 08:23:27;;;;;;;;;3.50;2.75;;;;;19.80;26.46;101883.78;4973369;28;52420;-63
2022/04/17 08:25:52;;;;;;;;;2.50;2.50;;;;;19.85;26.45;101881.00;4974489;28;45461;-52
2022/04/17 08:28:17;;;;;;;;;4.00;4.00;;;;;19.86;26.84;101873.06;4973274;28;45293;-57
2022/04/17 08:30:43;;;;;;;;;3.00;3.00;;;;;19.92;26.74;101877.25;4974551;28;45505;-56
2022/04/17 08:33:08;;;;;;;;;3.50;3.50;;;;;19.94;27.00;101875.41;4973817;28;53359;-56
2022/04/17 08:35:34;;;;;;;;;5.00;4.00;;;;;19.96;26.63;101878.00;4974099;28;45410;-65
2022/04/17 08:38:00;;;;;;;;;6.25;3.50;;;;;19.95;26.47;101874.50;4974283;28;45280;-64
2022/04/17 08:40:29;;;;;;;;;5.00;3.75;;;;;19.97;26.62;101875.31;4974715;28;45552;-65
2022/04/17 08:42:55;;;;;;;;;4.00;3.00;;;;;19.99;26.76;101875.25;4973952;28;46525;-67
2022/04/17 08:45:21;;;;;;;;;4.00;4.00;;;;;19.98;26.54;101866.53;4974110;28;45746;-63
2022/04/17 08:47:46;;;;;;;;;4.00;3.00;;;;;19.99;26.87;101862.09;4974037;28;45403;-67
2022/04/17 08:50:18;;;;;;;;;6.00;4.00;;;;;20.00;26.34;101875.22;4974197;28;45227;-65
2022/04/17 08:52:49;;;;;;;;;3.25;3.25;;;;;19.99;26.43;101868.22;4973755;28;46660;-67
2022/04/17 08:55:15;;;;;;;;;6.00;4.50;;;;;19.99;26.28;101870.88;4973853;28;45541;-65
2022/04/17 08:57:41;;;;;;;;;4.00;4.00;;;;;20.01;26.48;101870.81;4972788;28;45808;-67
2022/04/17 09:00:11;;;;;;;;;5.00;5.00;;;;;20.03;26.84;101869.81;4974048;28;45542;-68
2022/04/17 09:02:37;;;;;;;;;3.00;3.00;;;;;20.04;26.68;101871.53;4973659;28;47220;-65
2022/04/17 09:05:07;;;;;;;;;2.00;2.00;;;;;20.08;26.93;101867.03;4973797;28;45875;-66
2022/04/17 09:07:44;;;;;;;;;1.00;1.00;;;;;20.10;27.00;101859.09;4976336;28;45367;-68
2022/04/17 09:10:09;;;;;;;;;3.25;3.25;;;;;20.12;26.45;101862.53;4976836;28;45211;-66
2022/04/17 09:12:35;;;;;;;;;5.50;4.00;;;;;20.10;26.85;101859.09;4975220;28;45750;-60
2022/04/17 09:15:00;;;;;;;;;4.00;3.00;;;;;20.11;26.81;101848.50;4976814;28;45314;-60
2022/04/17 09:17:33;;;;;;;;;4.00;4.00;;;;;20.14;26.38;101860.66;4976773;28;45300;-68
2022/04/17 09:19:59;;;;;;;;;4.00;3.00;;;;;20.14;26.41;101850.13;4975803;28;45587;-68
2022/04/17 09:22:25;;;;;;;;;3.75;3.75;;;;;20.15;26.29;101849.22;4976365;28;46551;-66
2022/04/17 09:24:51;;;;;;;;;3.50;3.50;;;;;20.15;26.31;101842.19;4976445;28;45806;-66
2022/04/17 09:27:16;;;;;;;;;3.25;3.25;;;;;20.17;26.63;101835.13;4976554;28;45732;-68
2022/04/17 09:29:42;;;;;;;;;4.00;3.50;;;;;20.19;26.36;101837.69;4976801;28;45255;-67
2022/04/17 09:32:08;;;;;;;;;3.50;3.50;;;;;20.21;26.13;101841.13;4975065;28;45777;-68
2022/04/17 09:34:50;;;;;;;;;4.00;3.00;;;;;20.24;26.68;101843.59;4976314;28;45422;-68
2022/04/17 09:37:18;;;;;;;;;2.50;2.50;;;;;20.26;26.26;101840.94;4976322;28;45191;-69
2022/04/17 09:39:44;;;;;;;;;3.75;3.00;;;;;20.27;26.92;101838.22;4976546;28;45383;-67
2022/04/17 09:42:10;;;;;;;;;4.00;4.00;;;;;20.28;26.09;101832.06;4976343;28;46361;-66
2022/04/17 09:45:01;;;;;;;;;3.25;3.25;;;;;20.28;26.66;101832.06;4976451;28;45771;-65
2022/04/17 09:47:28;;;;;;;;;3.25;2.50;;;;;20.29;26.70;101827.63;4976059;28;45216;-62
2022/04/17 09:49:53;;;;;;;;;3.75;3.75;;;;;20.30;26.30;101824.97;4976521;28;45477;-67
2022/04/17 09:52:19;;;;;;;;;2.50;2.50;;;;;20.31;26.17;101826.69;4976076;28;46411;-65
2022/04/17 09:54:47;;;;;;;;;5.00;3.50;;;;;20.33;26.03;101819.59;4976096;28;45901;-65
2022/04/17 09:57:17;;;;;;;;;4.00;2.25;;;;;20.32;26.35;101814.38;4976320;28;45279;-63
2022/04/17 09:59:43;;;;;;;;;4.00;4.00;;;;;20.34;26.14;101810.75;4976355;28;45469;-67
2022/04/17 10:02:12;;;;;;;;;5.00;4.00;;;;;20.35;26.42;101806.34;4976027;28;45819;-68
2022/04/17 10:04:39;;;;;;;;;3.00;3.00;;;;;20.35;25.68;101796.66;4976135;28;45743;-65
2022/04/17 10:07:05;;;;;;;;;3.25;3.25;;;;;20.36;26.15;101803.66;4976314;28;45331;-51
2022/04/17 10:09:31;;;;;;;;;4.00;4.00;;;;;20.33;26.17;101798.53;4975407;28;45300;-64
2022/04/17 10:11:59;;;;;;;;;3.25;3.25;;;;;20.37;26.56;101800.09;4975879;28;45259;-67
2022/04/17 10:14:28;;;;;;;;;3.00;3.00;;;;;20.36;25.93;101793.13;4975742;28;45436;-68
2022/04/17 10:16:56;;;;;;;;;3.50;3.50;;;;;20.37;26.01;101791.34;4975844;28;45232;-65
2022/04/17 10:19:24;;;;;;;;;5.50;3.50;;;;;20.37;25.96;101788.72;4976090;28;45304;-66
2022/04/17 10:21:50;;;;;;;;;3.00;3.00;;;;;20.36;26.23;101784.38;4975802;28;45470;-68
2022/04/17 10:24:17;;;;;;;;;3.75;3.75;;;;;20.38;26.14;101786.03;4975846;28;45544;-55
2022/04/17 10:26:54;;;;;;;;;4.00;4.00;;;;;20.38;25.81;101779.91;4974714;27;45407;-62
2022/04/17 10:29:25;;;;;;;;;4.25;3.75;;;;;20.39;25.63;101779.00;4975947;28;45371;-70
2022/04/17 10:32:08;;;;;;;;;5.00;4.00;;;;;20.38;25.58;101767.59;4977134;28;45955;-67
2022/04/17 10:34:37;;;;;;;;;3.00;3.00;;;;;20.40;25.50;101767.50;4974677;28;46539;-64
2022/04/17 10:37:32;;;;;;;;;6.00;3.75;;;;;20.42;26.04;101765.69;4975984;28;45251;-58
2022/04/17 10:39:58;;;;;;;;;4.00;3.25;;;;;20.41;25.50;101766.59;4976022;28;45395;-67
2022/04/17 10:42:35;;;;;;;;;4.00;4.00;;;;;20.38;25.70;101754.44;4975662;28;45377;-68
2022/04/17 10:45:02;;;;;;;;;4.25;4.25;;;;;20.43;25.75;101750.75;4974502;28;45680;-68
2022/04/17 10:47:29;;;;;;;;;3.00;3.00;;;;;20.44;26.02;101744.56;4974794;28;45373;-70
2022/04/17 10:50:00;;;;;;;;;4.50;3.25;;;;;20.45;25.28;101741.88;4975785;28;45241;-67
2022/04/17 10:52:33;;;;;;;;;6.00;2.25;;;;;20.44;25.38;101737.53;4974795;28;45301;-68
2022/04/17 10:55:08;;;;;;;;;4.00;4.00;;;;;20.44;25.30;101732.25;4975239;28;45336;-59
2022/04/17 10:57:48;;;;;;;;;2.00;2.00;;;;;20.45;25.43;101727.88;4975826;28;45336;-64
2022/04/17 11:00:36;;;;;;;;;4.00;4.00;;;;;20.46;25.79;101729.53;4975784;28;45541;-66
2022/04/17 11:03:09;;;;;;;;;4.00;2.25;;;;;20.47;25.25;101718.09;4975659;28;45982;-68
2022/04/17 11:08:23;;;;;;;;;3.75;3.00;;;;;20.48;25.42;101718.06;4975532;28;45398;-68
2022/04/17 11:10:56;;;;;;;;;2.00;2.00;;;;;20.48;24.89;101712.78;4974217;28;45621;-67
2022/04/17 11:13:25;;;;;;;;;2.50;2.50;;;;;20.50;24.94;101710.06;4975028;28;46396;-68
2022/04/17 11:15:58;;;;;;;;;4.25;4.25;;;;;20.50;24.80;101710.06;4975183;28;45853;-66
2022/04/17 11:18:27;;;;;;;;;3.00;3.00;;;;;20.49;25.33;101696.06;4975132;28;45193;-47
2022/04/17 11:20:54;;;;;;;;;3.50;3.50;;;;;20.51;25.43;101696.00;4975515;28;45343;-63
2022/04/17 11:23:47;;;;;;;;;3.00;3.00;;;;;20.52;25.06;101697.72;4974995;28;46669;-68
2022/04/17 11:26:13;;;;;;;;;4.00;3.50;;;;;20.52;25.42;101681.91;4974041;28;45930;-66
2022/04/17 11:28:38;;;;;;;;;3.25;3.25;;;;;20.52;25.14;101684.53;4974625;28;45489;-57
2022/04/17 11:31:04;;;;;;;;;3.25;3.25;;;;;20.53;25.54;101675.72;4975695;28;45458;-54
2022/04/17 11:33:30;;;;;;;;;4.00;4.00;;;;;20.55;25.72;101681.78;4975355;28;47015;-54
2022/04/17 11:35:57;;;;;;;;;4.50;3.00;;;;;20.56;25.41;101678.22;4973575;28;45382;-68
2022/04/17 11:38:22;;;;;;;;;4.50;3.25;;;;;20.57;25.42;101672.03;4975081;28;45478;-68